Time;durP1;ratioP1;P1;durP2;ratioP2;P2;SDS_P1;SDS_P2;PMS_P1;PMS_P2;Temp;Humidity;BMP_temperature;BMP_pressure;BME280_temperature;BME280_humidity;BME280_pressure;Samples;Min_cycle;Max_cycle;Signal;HPM_P1;HPM_P2
2022/08/25 00:00:09;;;;;;;28.00;11.38;;;;;;;19.74;69.07;100345.06;4976431;28;20042;-40
2022/08/25 00:02:36;;;;;;;25.58;9.45;;;;;;;19.75;69.17;100341.53;4976144;28;20054;-44
2022/08/25 00:05:04;;;;;;;23.20;10.25;;;;;;;19.75;69.63;100341.53;4981391;28;20085;-43
2022/08/25 00:07:32;;;;;;;26.00;10.48;;;;;;;19.75;69.67;100346.78;4975435;28;20409;-39
2022/08/25 00:09:59;;;;;;;25.02;10.82;;;;;;;19.77;69.19;100334.47;4970087;28;20046;-41
2022/08/25 00:12:25;;;;;;;22.83;9.10;;;;;;;19.75;69.14;100325.75;4965879;28;20057;-43
2022/08/25 00:14:53;;;;;;;20.38;9.45;;;;;;;19.74;69.46;100329.31;4973660;28;20560;-48
2022/08/25 00:17:20;;;;;;;22.98;9.45;;;;;;;19.73;69.24;100335.44;4968764;28;20128;-42
2022/08/25 00:19:47;;;;;;;21.65;9.88;;;;;;;19.72;69.32;100335.53;4971536;28;20038;-44
2022/08/25 00:22:13;;;;;;;23.08;9.50;;;;;;;19.72;69.47;100338.16;4970015;28;21687;-44
2022/08/25 00:24:40;;;;;;;23.77;10.23;;;;;;;19.72;69.84;100335.53;4972083;28;20117;-44
2022/08/25 00:27:07;;;;;;;28.30;10.73;;;;;;;19.71;69.86;100323.28;4969517;28;20391;-41
2022/08/25 00:29:36;;;;;;;26.58;10.63;;;;;;;19.72;69.67;100317.97;4968739;28;20061;-41
2022/08/25 00:32:04;;;;;;;26.48;10.68;;;;;;;19.70;69.90;100322.44;4969574;28;20085;-46
2022/08/25 00:34:34;;;;;;;28.17;10.57;;;;;;;19.66;70.47;100320.84;4965621;28;20058;-42
2022/08/25 00:37:05;;;;;;;28.85;11.02;;;;;;;19.65;70.04;100319.13;4968365;28;20062;-41
2022/08/25 00:39:33;;;;;;;24.63;10.52;;;;;;;19.64;70.51;100326.16;4977393;28;20177;-43
2022/08/25 00:42:00;;;;;;;25.27;9.88;;;;;;;19.67;70.44;100327.81;4972515;28;20125;-44
2022/08/25 00:44:29;;;;;;;21.25;9.30;;;;;;;19.66;70.84;100318.22;4967616;28;20077;-41
2022/08/25 00:46:59;;;;;;;20.83;9.65;;;;;;;19.67;70.61;100317.31;4969284;28;20489;-43
2022/08/25 00:52:19;;;;;;;22.83;11.85;;;;;;;19.63;70.59;100328.84;5023640;28;20747;-46
2022/08/25 00:54:57;;;;;;;25.42;13.00;;;;;;;19.64;71.19;100326.16;4998841;28;20049;-40
2022/08/25 00:57:36;;;;;;;23.88;12.02;;;;;;;19.69;70.63;100331.22;4996646;28;20379;-43
2022/08/25 01:00:09;;;;;;;24.00;10.85;;;;;;;19.70;70.68;100330.34;4997612;28;20097;-39
2022/08/25 01:02:36;;;;;;;25.65;13.23;;;;;;;19.70;70.72;100332.09;5007852;28;20383;-46
2022/08/25 01:05:04;;;;;;;24.52;11.90;;;;;;;19.70;70.68;100343.47;4998561;28;20046;-41
2022/08/25 01:07:32;;;;;;;21.52;13.02;;;;;;;19.71;70.57;100345.19;4994838;28;20060;-43
2022/08/25 01:09:59;;;;;;;21.88;11.50;;;;;;;19.72;71.21;100341.63;4998797;28;20057;-44
2022/08/25 01:12:26;;;;;;;20.90;8.85;;;;;;;19.72;71.01;100344.25;4995342;28;20845;-40
2022/08/25 01:14:55;;;;;;;17.73;9.23;;;;;;;19.72;71.13;100341.63;4996931;28;20601;-47
2022/08/25 01:17:22;;;;;;;18.10;10.90;;;;;;;19.73;71.00;100343.34;4993848;28;20076;-44
2022/08/25 01:19:48;;;;;;;17.38;10.45;;;;;;;19.74;71.16;100345.06;4995646;28;20054;-42
2022/08/25 01:22:15;;;;;;;17.83;10.43;;;;;;;19.72;71.06;100336.38;4996858;28;20042;-43
2022/08/25 01:24:58;;;;;;;16.52;10.30;;;;;;;19.69;71.22;100336.47;4998225;28;20054;-39
2022/08/25 01:27:25;;;;;;;17.55;11.05;;;;;;;19.72;71.35;100336.38;4999097;28;20046;-46
2022/08/25 01:29:51;;;;;;;17.60;9.73;;;;;;;19.72;71.38;100341.63;5001674;28;21682;-45
2022/08/25 01:32:18;;;;;;;17.00;10.10;;;;;;;19.73;71.01;100338.09;5002521;28;20050;-45
2022/08/25 01:34:45;;;;;;;16.13;9.27;;;;;;;19.73;71.15;100337.25;4998393;28;20677;-43
2022/08/25 01:37:14;;;;;;;17.77;9.50;;;;;;;19.72;71.45;100333.75;4999969;28;20046;-44
2022/08/25 01:39:42;;;;;;;17.00;11.23;;;;;;;19.72;71.22;100331.13;5002361;28;20512;-40
2022/08/25 01:42:40;;;;;;;17.60;10.73;;;;;;;19.65;71.22;100334.88;4991924;28;20045;-45
2022/08/25 01:45:09;;;;;;;16.23;9.60;;;;;;;19.69;71.12;100331.22;4992600;28;20046;-44
2022/08/25 01:47:37;;;;;;;15.63;9.70;;;;;;;19.70;71.58;100338.22;4992704;28;20146;-47
2022/08/25 01:50:05;;;;;;;15.23;9.25;;;;;;;19.69;71.19;100333.84;5001635;28;20053;-39
2022/08/25 01:52:44;;;;;;;18.08;9.57;;;;;;;19.69;71.45;100341.72;4991971;28;20124;-42
2022/08/25 01:55:10;;;;;;;19.17;10.05;;;;;;;19.67;71.38;100338.31;5000204;28;20085;-39
2022/08/25 01:57:37;;;;;;;16.48;8.75;;;;;;;19.67;71.19;100333.06;4993479;28;20054;-47
2022/08/25 02:00:08;;;;;;;14.30;8.20;;;;;;;19.67;71.06;100330.44;4994969;28;20149;-43
2022/08/25 02:02:38;;;;;;;14.60;8.57;;;;;;;19.64;70.92;100336.66;4988835;28;20050;-41
2022/08/25 02:05:10;;;;;;;13.27;7.68;;;;;;;19.64;71.13;100330.53;4980616;28;20164;-45
2022/08/25 02:07:37;;;;;;;13.93;8.18;;;;;;;19.63;71.18;100329.69;4985257;28;20502;-42
2022/08/25 02:10:06;;;;;;;11.50;7.53;;;;;;;19.65;71.36;100329.63;4987083;28;20057;-40
2022/08/25 02:12:34;;;;;;;12.45;8.32;;;;;;;19.64;70.94;100333.19;4979452;28;20077;-42
2022/08/25 02:15:00;;;;;;;11.82;7.68;;;;;;;19.65;71.14;100350.66;4982616;28;20058;-41
2022/08/25 02:17:28;;;;;;;12.15;8.15;;;;;;;19.67;70.91;100338.31;4987065;28;20116;-44
2022/08/25 02:19:55;;;;;;;12.55;7.75;;;;;;;19.66;71.20;100336.63;4982990;28;20051;-39
2022/08/25 02:22:22;;;;;;;14.63;8.20;;;;;;;19.65;71.35;100329.63;4986527;28;20752;-46
2022/08/25 02:24:49;;;;;;;14.02;8.98;;;;;;;19.63;71.46;100331.47;4985490;28;20058;-41
2022/08/25 02:27:16;;;;;;;13.07;7.97;;;;;;;19.61;71.28;100339.41;4977830;28;20058;-41
2022/08/25 02:29:42;;;;;;;11.63;7.90;;;;;;;19.60;71.24;100344.72;4992265;28;20047;-40
2022/08/25 02:32:09;;;;;;;11.68;7.35;;;;;;;19.58;71.10;100333.38;4985140;28;20077;-40
2022/08/25 02:34:36;;;;;;;11.93;7.65;;;;;;;19.58;71.07;100338.63;4982559;28;20058;-44
2022/08/25 02:37:03;;;;;;;10.82;7.05;;;;;;;19.57;71.45;100337.81;4990960;28;20113;-41
2022/08/25 02:39:29;;;;;;;14.07;7.85;;;;;;;19.56;71.59;100335.22;4982939;28;20042;-45
2022/08/25 02:41:56;;;;;;;14.05;8.48;;;;;;;19.57;71.51;100327.28;4983896;28;20375;-40
2022/08/25 02:44:22;;;;;;;14.80;8.52;;;;;;;19.56;71.47;100325.59;4982056;28;20047;-44
2022/08/25 02:46:49;;;;;;;13.73;8.20;;;;;;;19.57;71.15;100310.66;4982506;28;20045;-47
2022/08/25 02:49:17;;;;;;;15.07;9.40;;;;;;;19.57;71.28;100295.75;4988611;28;20509;-46
2022/08/25 02:51:44;;;;;;;15.25;9.10;;;;;;;19.57;71.47;100305.41;4985691;28;20061;-41
2022/08/25 02:54:10;;;;;;;16.33;9.80;;;;;;;19.57;71.20;100311.53;4985869;28;20066;-41
2022/08/25 02:56:37;;;;;;;18.40;11.20;;;;;;;19.55;71.67;100310.72;4982148;28;20743;-38
2022/08/25 02:59:04;;;;;;;16.38;10.48;;;;;;;19.55;71.70;100307.25;4984636;28;20107;-45
2022/08/25 03:01:31;;;;;;;20.05;11.15;;;;;;;19.55;71.48;100307.25;4983090;28;20042;-41
2022/08/25 03:03:58;;;;;;;18.13;11.27;;;;;;;19.53;71.79;100313.38;4978810;28;20735;-42
2022/08/25 03:06:26;;;;;;;21.75;11.98;;;;;;;19.53;71.47;100320.44;4983995;28;20104;-44
2022/08/25 03:08:54;;;;;;;18.20;10.95;;;;;;;19.52;71.88;100309.06;4982932;28;20060;-45
2022/08/25 03:11:20;;;;;;;20.13;11.48;;;;;;;19.51;71.72;100295.97;4987187;28;20558;-39
2022/08/25 03:13:49;;;;;;;21.77;12.65;;;;;;;19.49;72.31;100293.41;4982338;28;20115;-41
2022/08/25 03:16:17;;;;;;;24.23;13.10;;;;;;;19.46;72.55;100288.28;4989052;28;20053;-43
2022/08/25 03:18:44;;;;;;;26.42;13.93;;;;;;;19.45;72.50;100301.47;4980047;28;21243;-46
2022/08/25 03:21:12;;;;;;;25.33;14.05;;;;;;;19.44;72.44;100300.59;4983765;28;20108;-39
2022/08/25 03:23:41;;;;;;;28.27;13.18;;;;;;;19.43;72.33;100283.13;4982499;28;20133;-42
2022/08/25 03:28:55;;;;;;;26.95;14.10;;;;;;;19.45;72.20;100291.81;4978781;28;20054;-41
2022/08/25 03:31:24;;;;;;;25.80;14.60;;;;;;;19.46;72.27;100293.53;4982011;28;20092;-38
2022/08/25 03:33:52;;;;;;;25.08;14.43;;;;;;;19.46;71.85;100283.03;4981334;28;20076;-40
2022/08/25 03:36:19;;;;;;;25.65;14.75;;;;;;;19.45;72.17;100281.28;4984292;28;20081;-43
2022/08/25 03:38:45;;;;;;;25.25;14.48;;;;;;;19.45;71.89;100265.53;4980387;28;20062;-41
2022/08/25 03:41:16;;;;;;;25.30;12.13;;;;;;;19.45;72.00;100262.91;4983580;28;20568;-41
2022/08/25 03:43:43;;;;;;;25.98;13.95;;;;;;;19.43;71.91;100261.25;4984324;28;20050;-45
2022/08/25 03:46:20;;;;;;;23.75;12.90;;;;;;;19.42;72.31;100265.63;4981186;28;20042;-40
2022/08/25 03:48:48;;;;;;;24.67;14.55;;;;;;;19.41;72.20;100260.47;4981612;28;20490;-45
2022/08/25 03:51:25;;;;;;;27.80;13.82;;;;;;;19.36;72.03;100250.13;4982282;28;20047;-45
2022/08/25 03:53:52;;;;;;;26.58;13.98;;;;;;;19.36;72.10;100250.13;4983219;28;20066;-41
2022/08/25 03:56:19;;;;;;;24.48;13.00;;;;;;;19.35;72.43;100243.16;4978659;28;20601;-42
2022/08/25 03:58:46;;;;;;;29.25;14.70;;;;;;;19.33;72.07;100255.47;4982406;28;20055;-41
2022/08/25 04:01:14;;;;;;;27.17;15.07;;;;;;;19.32;72.38;100256.41;4982419;28;20537;-39
2022/08/25 04:03:43;;;;;;;26.95;15.05;;;;;;;19.33;72.06;100255.47;4979212;28;20403;-43
2022/08/25 04:06:10;;;;;;;31.60;15.32;;;;;;;19.33;71.98;100250.22;4978661;28;20058;-43
2022/08/25 04:08:37;;;;;;;28.00;14.43;;;;;;;19.34;72.48;100246.69;4978103;28;20054;-42
2022/08/25 04:11:09;;;;;;;28.17;14.20;;;;;;;19.34;72.25;100246.69;4975385;28;20047;-41
2022/08/25 04:13:36;;;;;;;24.33;13.38;;;;;;;19.32;72.42;100244.09;4977021;28;20044;-41
2022/08/25 04:16:11;;;;;;;25.50;13.77;;;;;;;19.34;72.43;100246.69;4985960;28;20042;-40
2022/08/25 04:18:38;;;;;;;26.83;14.15;;;;;;;19.35;72.38;100243.16;4982242;28;20054;-42
2022/08/25 04:21:08;;;;;;;24.40;13.52;;;;;;;19.34;72.15;100236.19;4988370;28;20105;-46
2022/08/25 04:23:37;;;;;;;24.17;11.98;;;;;;;19.34;72.12;100241.44;4982446;28;20459;-44
2022/08/25 04:26:14;;;;;;;24.85;12.77;;;;;;;19.31;72.03;100241.53;4986508;28;20567;-41
2022/08/25 04:28:41;;;;;;;23.42;12.70;;;;;;;19.32;72.33;100245.91;4979361;28;20683;-43
2022/08/25 04:31:10;;;;;;;26.33;14.10;;;;;;;19.31;72.51;100255.53;4982073;28;20803;-41
2022/08/25 04:33:37;;;;;;;24.65;13.40;;;;;;;19.30;72.08;100258.22;4985107;28;20116;-42
2022/08/25 04:36:05;;;;;;;24.00;13.40;;;;;;;19.30;72.34;100263.47;4982220;28;20062;-45
2022/08/25 04:38:39;;;;;;;24.70;13.63;;;;;;;19.25;72.08;100248.72;4978464;28;20410;-42
2022/08/25 04:41:07;;;;;;;29.88;13.00;;;;;;;19.19;72.21;100253.34;4978721;28;20465;-43
2022/08/25 04:43:36;;;;;;;24.23;13.38;;;;;;;19.14;71.98;100256.13;4981666;28;20073;-44
2022/08/25 04:46:06;;;;;;;23.20;13.10;;;;;;;19.11;72.45;100267.59;4985078;28;20124;-42
2022/08/25 04:48:33;;;;;;;21.23;12.40;;;;;;;19.07;72.25;100286.13;4979545;28;20065;-43
2022/08/25 04:51:05;;;;;;;19.70;10.80;;;;;;;19.05;72.12;100285.31;4983621;28;20046;-47
2022/08/25 04:53:33;;;;;;;20.08;11.70;;;;;;;19.00;72.46;100291.56;4979104;28;20046;-42
2022/08/25 04:56:00;;;;;;;19.75;10.52;;;;;;;18.97;72.45;100290.81;4981079;28;20054;-38
2022/08/25 04:58:29;;;;;;;21.30;11.48;;;;;;;18.96;71.93;100300.47;4983463;28;20487;-42
2022/08/25 05:01:06;;;;;;;19.42;11.15;;;;;;;18.93;71.88;100299.69;4980238;28;20050;-45
2022/08/25 05:03:33;;;;;;;19.95;11.55;;;;;;;18.92;72.02;100303.25;4984755;28;20053;-43
2022/08/25 05:06:01;;;;;;;17.98;11.50;;;;;;;18.92;71.84;100298.84;4983698;28;20105;-45
2022/08/25 05:08:28;;;;;;;18.92;11.43;;;;;;;18.89;72.63;100299.78;4984381;28;20116;-43
2022/08/25 05:10:55;;;;;;;21.45;11.68;;;;;;;18.89;72.20;100306.81;4987110;28;20058;-42
2022/08/25 05:13:24;;;;;;;20.40;11.75;;;;;;;18.92;71.98;100313.72;4983690;28;20047;-42
2022/08/25 05:15:55;;;;;;;19.55;11.68;;;;;;;18.92;71.97;100306.72;4984431;28;20050;-42
2022/08/25 05:18:25;;;;;;;17.73;9.60;;;;;;;18.89;72.01;100298.94;4962094;28;20671;-42
2022/08/25 05:20:53;;;;;;;16.67;9.55;;;;;;;18.88;72.48;100305.97;4984022;28;20104;-43
2022/08/25 05:23:21;;;;;;;17.92;10.25;;;;;;;18.88;71.89;100297.25;4981865;28;20077;-42
2022/08/25 05:25:49;;;;;;;16.67;9.35;;;;;;;18.87;71.75;100306.00;4980827;28;20109;-42
2022/08/25 05:28:17;;;;;;;16.15;8.75;;;;;;;18.85;72.28;100305.22;4979814;28;20104;-42
2022/08/25 05:30:44;;;;;;;16.58;8.57;;;;;;;18.81;71.85;100307.06;4976183;28;20053;-43
2022/08/25 05:33:13;;;;;;;14.63;8.13;;;;;;;18.81;71.88;100306.22;4982054;28;20043;-41
2022/08/25 05:35:40;;;;;;;12.82;7.40;;;;;;;18.80;72.42;100307.13;4977711;28;20050;-40
2022/08/25 05:38:06;;;;;;;11.93;7.30;;;;;;;18.79;71.56;100297.53;4982290;28;20108;-42
2022/08/25 05:40:40;;;;;;;9.98;6.70;;;;;;;18.78;71.49;100295.84;4986859;28;20120;-43
2022/08/25 05:43:07;;;;;;;9.77;6.10;;;;;;;18.74;71.25;100295.06;4988175;28;20046;-39
2022/08/25 05:45:34;;;;;;;9.27;5.00;;;;;;;18.72;71.45;100295.13;4982789;28;20051;-38
2022/08/25 05:48:01;;;;;;;7.85;3.22;;;;;;;18.68;71.94;100296.13;4983570;28;20450;-42
2022/08/25 05:50:28;;;;;;;9.25;4.15;;;;;;;18.67;71.55;100301.44;4987399;28;20100;-41
2022/08/25 05:52:55;;;;;;;5.75;4.10;;;;;;;18.65;71.59;100305.88;4982901;28;20054;-43
2022/08/25 05:55:21;;;;;;;8.55;4.55;;;;;;;18.62;71.60;100299.78;4985648;28;20051;-42
2022/08/25 05:57:48;;;;;;;7.40;4.95;;;;;;;18.61;71.26;100305.13;4986574;28;20053;-41
2022/08/25 06:00:17;;;;;;;5.25;2.92;;;;;;;18.57;71.46;100304.34;4987512;28;20538;-41
2022/08/25 06:02:45;;;;;;;4.72;2.63;;;;;;;18.57;71.29;100300.84;4978694;28;20726;-47
2022/08/25 06:05:18;;;;;;;6.32;4.07;;;;;;;18.57;71.56;100300.84;4983022;28;20053;-41
2022/08/25 06:07:47;;;;;;;5.00;3.55;;;;;;;18.58;71.21;100315.69;4989569;28;20082;-41
2022/08/25 06:10:14;;;;;;;4.40;3.60;;;;;;;18.59;71.14;100323.53;4983271;28;20069;-41
2022/08/25 06:12:43;;;;;;;5.75;3.55;;;;;;;18.63;70.87;100326.91;4988588;28;20042;-42
2022/08/25 06:15:13;;;;;;;5.18;3.65;;;;;;;18.63;70.80;100334.75;4979417;28;20101;-39
2022/08/25 06:17:41;;;;;;;4.75;3.53;;;;;;;18.64;70.41;100331.22;4982360;28;20074;-45
2022/08/25 06:20:12;;;;;;;4.75;3.15;;;;;;;18.68;70.63;100345.13;4989931;28;20050;-44
2022/08/25 06:22:39;;;;;;;4.32;3.40;;;;;;;18.69;70.27;100347.69;4988858;28;20057;-42
2022/08/25 06:25:08;;;;;;;5.15;3.15;;;;;;;18.71;70.21;100358.97;4983802;28;20046;-43
2022/08/25 06:27:36;;;;;;;3.72;3.25;;;;;;;18.71;70.15;100356.34;4983673;28;20054;-41
2022/08/25 06:30:05;;;;;;;4.63;3.45;;;;;;;18.74;70.07;100365.91;4982349;28;20049;-44
2022/08/25 06:32:38;;;;;;;5.75;2.92;;;;;;;18.75;70.11;100368.47;4982108;28;20096;-41
2022/08/25 06:35:09;;;;;;;3.97;2.85;;;;;;;18.77;69.83;100354.47;4977645;28;20148;-42
2022/08/25 06:37:37;;;;;;;7.28;3.35;;;;;;;18.76;69.67;100358.84;4984466;28;20486;-44
2022/08/25 06:40:07;;;;;;;3.67;1.77;;;;;;;18.74;69.50;100347.53;4982947;28;20431;-41
2022/08/25 06:42:33;;;;;;;5.90;3.33;;;;;;;18.72;69.16;100350.22;4977767;28;20152;-42
2022/08/25 06:45:01;;;;;;;5.13;1.60;;;;;;;18.71;69.30;100348.50;4980160;28;20487;-39
2022/08/25 06:47:27;;;;;;;5.70;3.72;;;;;;;18.68;69.03;100343.34;4983204;28;20085;-44
2022/08/25 06:49:54;;;;;;;4.13;1.80;;;;;;;18.67;68.97;100335.53;4986224;28;20712;-42
2022/08/25 06:52:21;;;;;;;7.32;2.70;;;;;;;18.65;69.32;100338.22;4984761;28;20050;-41
2022/08/25 06:54:54;;;;;;;4.25;2.42;;;;;;;18.65;69.49;100338.22;4985715;28;20070;-39
2022/08/25 06:57:21;;;;;;;3.53;2.75;;;;;;;18.66;69.30;100339.91;4976928;28;20058;-41
2022/08/25 06:59:48;;;;;;;4.35;3.13;;;;;;;18.65;69.14;100353.09;4975421;28;20058;-41
2022/08/25 07:02:19;;;;;;;3.50;2.60;;;;;;;18.63;68.85;100355.75;4982162;28;20064;-40
2022/08/25 07:04:47;;;;;;;4.28;3.85;;;;;;;18.64;68.91;100352.22;4983006;28;20579;-40
2022/08/25 07:07:14;;;;;;;4.22;2.85;;;;;;;18.64;69.13;100360.09;4983257;28;20057;-40
2022/08/25 07:09:41;;;;;;;5.45;3.00;;;;;;;18.66;68.71;100360.03;4979699;28;20490;-39
2022/08/25 07:12:07;;;;;;;3.58;2.78;;;;;;;18.68;69.32;100360.84;4984311;28;20058;-39
2022/08/25 07:14:35;;;;;;;5.90;3.53;;;;;;;18.71;69.40;100358.16;4990082;28;20116;-41
2022/08/25 07:17:03;;;;;;;4.82;3.47;;;;;;;18.71;68.83;100364.22;4991927;28;20073;-42
2022/08/25 07:19:38;;;;;;;4.10;3.65;;;;;;;18.71;69.15;100364.22;4984504;28;20141;-39
2022/08/25 07:22:06;;;;;;;3.13;2.70;;;;;;;18.73;68.95;100367.69;4984364;28;20538;-43
2022/08/25 07:24:35;;;;;;;5.63;3.47;;;;;;;18.74;68.37;100372.00;4982102;28;20050;-43
2022/08/25 07:27:02;;;;;;;4.82;3.55;;;;;;;18.75;69.01;100365.00;4979120;28;20106;-42
2022/08/25 07:29:30;;;;;;;3.80;2.55;;;;;;;18.75;68.50;100360.59;4983822;28;20047;-40
2022/08/25 07:32:00;;;;;;;3.85;2.25;;;;;;;18.74;68.54;100364.13;4984491;28;20443;-47
2022/08/25 07:37:18;;;;;;;7.50;3.53;;;;;;;18.74;69.16;100373.75;4969149;28;20050;-41
2022/08/25 07:40:04;;;;;;;7.20;3.50;;;;;;;18.73;69.07;100372.94;4984414;28;20101;-43
2022/08/25 07:42:31;;;;;;;4.93;3.63;;;;;;;18.74;69.24;100368.50;4980036;28;20137;-43
2022/08/25 07:44:57;;;;;;;7.55;3.88;;;;;;;18.73;69.45;100366.81;4979512;28;20511;-45
2022/08/25 07:47:24;;;;;;;6.65;4.63;;;;;;;18.72;69.14;100368.59;4983943;28;20117;-41
2022/08/25 07:49:51;;;;;;;7.57;3.17;;;;;;;18.70;68.84;100367.78;4986143;28;20462;-42
2022/08/25 07:52:18;;;;;;;6.78;4.63;;;;;;;18.71;69.70;100369.47;4980752;28;20042;-37
2022/08/25 07:54:45;;;;;;;7.32;4.28;;;;;;;18.72;69.34;100365.09;4982533;28;20043;-38
2022/08/25 07:57:12;;;;;;;6.93;4.28;;;;;;;18.70;69.31;100367.78;4983951;28;20081;-44
2022/08/25 07:59:41;;;;;;;5.75;4.35;;;;;;;18.71;69.30;100364.22;4983362;28;20097;-44
2022/08/25 08:02:12;;;;;;;5.97;4.18;;;;;;;18.71;69.22;100366.84;4982456;28;20044;-39
2022/08/25 08:04:47;;;;;;;5.05;3.92;;;;;;;18.70;68.92;100367.78;4988105;28;20050;-43
2022/08/25 08:07:18;;;;;;;6.90;3.90;;;;;;;18.69;69.45;100359.94;4978478;28;20046;-40
2022/08/25 08:09:46;;;;;;;5.22;3.13;;;;;;;18.68;69.30;100361.69;4980587;28;20150;-48
2022/08/25 08:12:22;;;;;;;;;;;;;;;18.54;69.26;100363.91;4989459;28;20042;-42
2022/08/25 08:14:50;;;;;;;4.55;3.35;;;;;;;18.66;69.12;100371.41;4982247;28;19933;-40
2022/08/25 08:17:16;;;;;;;7.28;3.55;;;;;;;18.67;69.38;100372.28;4984029;28;20050;-41
2022/08/25 08:19:43;;;;;;;3.92;3.22;;;;;;;18.67;68.63;100362.63;4984513;28;20057;-46
2022/08/25 08:22:14;;;;;;;4.55;3.08;;;;;;;18.68;68.49;100369.56;4986993;28;20042;-39
2022/08/25 08:24:43;;;;;;;4.28;3.20;;;;;;;18.70;68.68;100372.16;4983079;28;20046;-44
2022/08/25 08:27:22;;;;;;;3.38;2.92;;;;;;;18.70;68.60;100365.16;4979528;28;20395;-43
2022/08/25 08:29:49;;;;;;;5.20;3.25;;;;;;;18.72;68.32;100370.34;4978143;28;20120;-45
2022/08/25 08:32:16;;;;;;;4.50;3.67;;;;;;;18.72;68.40;100368.59;4983869;28;20050;-41
2022/08/25 08:34:45;;;;;;;4.55;2.85;;;;;;;18.71;69.06;100369.47;4977508;28;20046;-40
2022/08/25 08:37:17;;;;;;;4.57;3.10;;;;;;;18.72;68.79;100365.97;4982160;28;20518;-43
2022/08/25 08:39:45;;;;;;;5.18;3.47;;;;;;;18.74;69.24;100353.66;4984022;28;20073;-42
2022/08/25 08:45:16;;;;;;;6.07;2.00;;;;;;;18.74;69.24;100363.28;5118413;27;20403;-40
2022/08/25 08:48:00;;;;;;;5.63;2.03;;;;;;;18.72;69.02;100368.59;5060670;27;20049;-39
2022/08/25 08:53:47;;;;;;;3.97;1.85;;;;;;;18.75;69.01;100365.84;5057259;27;20894;-46
2022/08/25 08:56:21;;;;;;;4.75;2.22;;;;;;;18.77;69.19;100364.97;5029124;28;20049;-40
2022/08/25 08:58:54;;;;;;;4.35;1.50;;;;;;;18.78;69.42;100364.03;5041622;28;20049;-43
2022/08/25 09:01:29;;;;;;;3.20;1.48;;;;;;;18.80;68.81;100356.97;5031762;28;20779;-38
2022/08/25 09:04:07;;;;;;;5.22;1.52;;;;;;;18.79;69.48;100366.63;5036206;28;20145;-44
2022/08/25 09:06:41;;;;;;;4.20;2.67;;;;;;;18.75;69.48;100365.84;5029714;28;20099;-42
2022/08/25 09:09:14;;;;;;;5.57;1.63;;;;;;;18.75;69.03;100371.09;5027817;28;20482;-43
2022/08/25 09:17:37;;;;;;;5.07;2.13;;;;;;;18.59;69.14;100365.50;5050692;27;21162;-44
2022/08/25 09:20:21;;;;;;;3.75;1.88;;;;;;;18.57;69.11;100371.66;5033897;28;20879;-42
2022/08/25 09:31:20;;;;;;;3.33;1.60;;;;;;;18.47;69.08;100350.13;5026464;28;20391;-42
2022/08/25 09:33:54;;;;;;;2.00;1.15;;;;;;;18.46;69.12;100349.28;4998139;28;20371;-40
2022/08/25 09:36:20;;;;;;;3.60;1.58;;;;;;;18.45;68.94;100350.19;4988004;28;20050;-40
2022/08/25 09:38:47;;;;;;;1.92;1.02;;;;;;;18.46;68.48;100351.03;4995355;28;20050;-40
2022/08/25 09:41:17;;;;;;;2.88;1.25;;;;;;;18.47;68.16;100356.22;4997397;28;20888;-41
2022/08/25 09:43:52;;;;;;;1.88;0.88;;;;;;;18.43;68.07;100349.38;5003313;28;20088;-39
2022/08/25 09:46:25;;;;;;;2.25;1.42;;;;;;;18.43;67.69;100349.38;5000326;28;20053;-41
2022/08/25 09:48:54;;;;;;;2.25;0.80;;;;;;;18.43;67.78;100351.97;5000562;28;20045;-43
2022/08/25 09:56:49;;;;;;;3.13;0.88;;;;;;;18.46;67.49;100362.38;5042873;27;20416;-41
2022/08/25 10:01:57;;;;;;;3.65;1.73;;;;;;;18.77;66.35;100362.34;5028827;27;20406;-39
2022/08/25 10:07:05;;;;;;;3.47;1.00;;;;;;;18.56;67.24;100364.72;5025856;28;20962;-43
2022/08/25 10:09:40;;;;;;;2.67;1.23;;;;;;;18.53;66.75;100359.56;4994211;28;20054;-37
2022/08/25 10:12:30;;;;;;;2.47;1.30;;;;;;;18.43;67.57;100349.38;4999808;28;20124;-38
2022/08/25 10:14:57;;;;;;;2.90;1.25;;;;;;;18.49;67.38;100354.44;4995409;28;20128;-45
2022/08/25 10:17:28;;;;;;;2.53;1.33;;;;;;;18.51;66.99;100351.75;4997050;28;20046;-44
2022/08/25 10:20:19;;;;;;;1.70;0.73;;;;;;;18.46;67.14;100351.91;4980471;28;20042;-42
2022/08/25 10:22:47;;;;;;;3.63;0.63;;;;;;;18.52;67.45;100353.47;4994937;28;20054;-43
2022/08/25 10:25:25;;;;;;;5.13;1.25;;;;;;;18.51;66.57;100341.28;5000676;28;20441;-42
2022/08/25 10:33:36;;;;;;;1.45;0.65;;;;;;;18.50;66.83;100298.44;5072040;27;20403;-43
2022/08/25 10:46:51;;;;;;;3.63;1.13;;;;;;;18.73;66.40;100307.34;5033738;27;20926;-40
2022/08/25 10:49:32;;;;;;;5.82;1.70;;;;;;;18.71;66.09;100301.25;5013434;28;20046;-48
2022/08/25 10:54:59;;;;;;;4.03;2.40;;;;;;;18.63;66.87;100284.94;5122653;27;21069;-44
2022/08/25 11:00:13;;;;;;;3.30;1.70;;;;;;;18.69;66.72;100297.84;5053151;27;20408;-44
2022/08/25 11:13:59;;;;;;;2.83;2.30;;;;;;;18.72;66.50;100338.88;5094088;27;20380;-42
2022/08/25 11:16:51;;;;;;;7.93;3.08;;;;;;;18.69;66.52;100345.06;5058593;28;20048;-45
2022/08/25 11:25:10;;;;;;;4.32;1.40;;;;;;;18.70;66.79;100357.28;5047965;27;20775;-39
2022/08/25 11:28:02;;;;;;;4.10;1.15;;;;;;;18.65;66.66;100364.44;5018336;28;20042;-50
2022/08/25 11:30:29;;;;;;;2.80;1.20;;;;;;;18.65;66.45;100359.19;5020021;28;20092;-41
2022/08/25 11:32:57;;;;;;;2.80;1.08;;;;;;;18.61;66.50;100360.19;5019586;28;20052;-41
2022/08/25 11:38:43;;;;;;;3.47;1.05;;;;;;;18.52;65.96;100352.59;5032188;27;20414;-42
2022/08/25 11:41:25;;;;;;;2.40;1.08;;;;;;;18.53;65.72;100351.69;5008512;28;20045;-50
2022/08/25 11:52:00;;;;;;;3.78;2.45;;;;;;;18.78;64.13;100364.03;5035151;28;20419;-42
2022/08/25 11:54:42;;;;;;;3.58;2.65;;;;;;;18.54;64.40;100371.78;5021560;28;20045;-45
2022/08/25 11:57:20;;;;;;;2.63;1.10;;;;;;;18.46;64.99;100365.00;5023270;28;20582;-47
2022/08/25 12:02:47;;;;;;;3.83;1.23;;;;;;;18.37;64.98;100383.63;5015312;27;20425;-43
2022/08/25 12:16:02;;;;;;;5.25;1.55;;;;;;;18.72;63.39;100392.22;5035578;28;20403;-44
2022/08/25 12:24:23;;;;;;;3.95;1.35;;;;;;;18.40;64.09;100403.69;5040971;27;20432;-45
2022/08/25 12:29:31;;;;;;;3.60;2.33;;;;;;;18.38;64.31;100414.22;5072673;27;20414;-40
2022/08/25 12:32:15;;;;;;;4.28;2.47;;;;;;;18.33;64.91;100423.97;5044942;28;20080;-48
2022/08/25 12:58:19;;;;;;;3.33;1.83;;;;;;;17.85;69.00;100452.34;5062684;28;20402;-39
2022/08/25 13:01:13;;;;;;;3.33;1.65;;;;;;;17.78;69.78;100456.00;5033740;28;20061;-42
2022/08/25 13:04:40;;;;;;;4.47;1.48;;;;;;;17.73;69.13;100454.38;5024818;28;20450;-40
2022/08/25 13:15:04;;;;;;;4.25;1.25;;;;;;;17.73;70.59;100459.63;5060939;27;20395;-41
2022/08/25 13:17:33;;;;;;;3.70;1.70;;;;;;;17.75;69.46;100466.56;5018860;28;20073;-39
2022/08/25 13:20:22;;;;;;;3.58;1.55;;;;;;;17.68;70.34;100471.09;5016643;28;20458;-39
2022/08/25 13:22:52;;;;;;;6.07;1.98;;;;;;;17.70;70.10;100480.63;5016663;28;20088;-40
2022/08/25 13:25:26;;;;;;;5.18;2.33;;;;;;;17.70;70.79;100483.25;5015703;28;20046;-40
2022/08/25 13:28:03;;;;;;;4.75;1.70;;;;;;;17.68;70.25;100487.69;5020672;28;20073;-41
2022/08/25 13:30:33;;;;;;;2.88;1.77;;;;;;;17.69;70.62;100494.66;5017649;28;20096;-44
2022/08/25 13:33:16;;;;;;;3.08;1.98;;;;;;;17.63;71.17;100494.78;5017570;28;20050;-39
2022/08/25 13:38:39;;;;;;;3.72;2.22;;;;;;;17.64;71.03;100488.69;5018712;28;20050;-45
2022/08/25 13:41:18;;;;;;;6.38;3.08;;;;;;;17.68;71.21;100481.59;5012118;28;20393;-40
2022/08/25 13:43:44;;;;;;;3.58;1.80;;;;;;;17.67;70.94;100475.47;5016884;28;20037;-41
2022/08/25 13:46:11;;;;;;;2.53;1.33;;;;;;;17.63;71.49;100473.84;5014884;28;20531;-36
2022/08/25 13:48:41;;;;;;;3.45;1.83;;;;;;;17.66;71.04;100468.53;5013936;28;20055;-43
2022/08/25 13:53:59;;;;;;;4.20;1.92;;;;;;;17.65;70.64;100450.22;5060079;28;20404;-43
2022/08/25 13:56:31;;;;;;;2.55;1.90;;;;;;;17.69;70.68;100446.63;5006869;28;20667;-40
2022/08/25 14:01:56;;;;;;;2.50;1.45;;;;;;;17.80;71.29;100430.66;5058433;27;20410;-39
2022/08/25 14:12:30;;;;;;;2.95;1.50;;;;;;;18.03;70.87;100486.81;5037809;28;20408;-40